createdAt,value
2018-03-28T00:00:53.193Z,4.70
2018-03-28T00:03:21.468Z,4.70
2018-03-28T00:05:49.707Z,4.60
2018-03-28T00:08:18.845Z,4.60
2018-03-28T00:10:47.082Z,4.60
2018-03-28T00:13:15.325Z,4.50
2018-03-28T00:15:43.655Z,4.50
2018-03-28T00:18:11.932Z,4.50
2018-03-28T00:20:40.181Z,4.50
2018-03-28T00:23:09.216Z,4.50
2018-03-28T00:25:37.475Z,4.50
2018-03-28T00:28:05.708Z,4.50
2018-03-28T00:30:34.749Z,4.40
2018-03-28T00:33:03.018Z,4.40
2018-03-28T00:35:31.259Z,4.40
2018-03-28T00:38:00.286Z,4.50
2018-03-28T00:40:28.528Z,4.40
2018-03-28T00:42:57.538Z,4.40
2018-03-28T00:45:26.674Z,4.40
2018-03-28T00:47:54.920Z,4.40
2018-03-28T00:50:23.173Z,4.40
2018-03-28T00:52:51.413Z,4.40
2018-03-28T00:55:19.661Z,4.30
2018-03-28T00:57:47.929Z,4.30
2018-03-28T01:00:16.202Z,4.30
2018-03-28T01:02:44.441Z,4.30
2018-03-28T01:05:13.468Z,4.40
2018-03-28T01:07:41.740Z,4.30
2018-03-28T01:10:09.988Z,4.40
2018-03-28T01:12:39.011Z,4.40
2018-03-28T01:15:07.379Z,4.30
2018-03-28T01:17:35.612Z,4.30
2018-03-28T01:20:03.884Z,4.20
2018-03-28T01:22:33.623Z,4.20
2018-03-28T01:25:02.650Z,4.20
2018-03-28T01:27:30.888Z,4.20
2018-03-28T01:29:59.193Z,4.20
2018-03-28T01:32:27.432Z,4.20
2018-03-28T01:34:56.461Z,4.20
2018-03-28T01:37:24.732Z,4.20
2018-03-28T01:39:53.104Z,4.20
2018-03-28T01:42:21.348Z,4.20
2018-03-28T01:44:50.381Z,4.30
2018-03-28T01:47:18.629Z,4.30
2018-03-28T01:49:46.941Z,4.40
2018-03-28T01:52:15.209Z,4.40
2018-03-28T01:54:43.439Z,4.50
2018-03-28T01:57:12.450Z,4.50
2018-03-28T01:59:40.701Z,4.50
2018-03-28T02:02:08.950Z,4.50
2018-03-28T02:04:37.201Z,4.50
2018-03-28T02:07:05.445Z,4.50
2018-03-28T02:09:34.451Z,4.60
2018-03-28T02:12:02.697Z,4.60
2018-03-28T02:14:31.734Z,4.60
2018-03-28T02:17:00.030Z,4.50
2018-03-28T02:19:28.281Z,4.60
2018-03-28T02:21:56.562Z,4.50
2018-03-28T02:24:24.840Z,4.60
2018-03-28T02:26:53.114Z,4.60
2018-03-28T02:29:21.363Z,4.60
2018-03-28T02:31:49.604Z,4.50
2018-03-28T02:34:17.846Z,4.50
2018-03-28T02:36:46.088Z,4.50
2018-03-28T02:39:14.312Z,4.50
2018-03-28T02:41:42.559Z,4.50
2018-03-28T02:44:10.792Z,4.50
2018-03-28T02:46:39.820Z,4.50
2018-03-28T02:49:08.055Z,4.50
2018-03-28T02:51:37.088Z,4.50
2018-03-28T02:54:05.376Z,4.50
2018-03-28T02:56:33.614Z,4.50
2018-03-28T02:59:01.862Z,4.60
2018-03-28T03:01:30.194Z,4.60
2018-03-28T03:03:58.476Z,4.60
2018-03-28T03:06:26.722Z,4.60
2018-03-28T03:08:54.960Z,4.60
2018-03-28T03:11:23.201Z,4.60
2018-03-28T03:13:51.474Z,4.60
2018-03-28T03:16:19.749Z,4.60
2018-03-28T03:18:47.983Z,4.70
2018-03-28T03:21:17.009Z,4.70
2018-03-28T03:23:45.279Z,4.70
2018-03-28T03:26:13.660Z,4.70
2018-03-28T03:28:41.901Z,4.70
2018-03-28T03:31:10.913Z,4.60
2018-03-28T03:33:39.144Z,4.60
2018-03-28T03:36:07.475Z,4.70
2018-03-28T03:38:35.723Z,4.70
2018-03-28T03:41:04.753Z,4.70
2018-03-28T03:43:32.996Z,4.60
2018-03-28T03:46:01.996Z,4.70
2018-03-28T03:48:30.301Z,4.70
2018-03-28T03:50:58.732Z,4.70
2018-03-28T03:53:26.944Z,4.70
2018-03-28T03:55:55.220Z,4.80
2018-03-28T03:58:23.473Z,4.80
2018-03-28T04:00:51.783Z,4.90
2018-03-28T04:03:20.053Z,4.80
2018-03-28T04:05:48.290Z,4.70
2018-03-28T04:08:17.304Z,4.60
2018-03-28T04:10:45.549Z,4.60
2018-03-28T04:13:14.547Z,4.60
2018-03-28T04:15:43.581Z,4.60
2018-03-28T04:18:11.852Z,4.60
2018-03-28T04:20:40.106Z,4.60
2018-03-28T04:23:08.405Z,4.60
2018-03-28T04:25:36.697Z,4.60
2018-03-28T04:28:04.927Z,4.60
2018-03-28T04:30:33.172Z,4.70
2018-03-28T04:33:01.506Z,4.70
2018-03-28T04:35:29.753Z,4.70
2018-03-28T04:37:58.028Z,4.80
2018-03-28T04:40:26.333Z,4.80
2018-03-28T04:42:54.715Z,4.80
2018-03-28T04:45:23.031Z,4.90
2018-03-28T04:47:51.253Z,4.90
2018-03-28T04:50:19.554Z,5.00
2018-03-28T04:52:47.812Z,5.00
2018-03-28T04:55:16.089Z,5.10
2018-03-28T04:57:44.341Z,5.20
2018-03-28T05:00:12.784Z,5.20
2018-03-28T05:02:41.001Z,5.10
2018-03-28T05:05:09.284Z,4.90
2018-03-28T05:07:37.565Z,4.70
2018-03-28T05:10:05.936Z,4.40
2018-03-28T05:12:34.211Z,4.30
2018-03-28T05:15:02.483Z,4.30
2018-03-28T05:17:31.507Z,4.20
2018-03-28T05:19:59.757Z,4.10
2018-03-28T05:22:28.040Z,4.10
2018-03-28T05:24:57.028Z,4.10
2018-03-28T05:27:25.306Z,4.10
2018-03-28T05:29:53.572Z,4.10
2018-03-28T05:32:21.830Z,4.00
2018-03-28T05:34:50.845Z,4.00
2018-03-28T05:37:19.093Z,4.00
2018-03-28T05:39:48.091Z,4.00
2018-03-28T05:42:16.324Z,4.00
2018-03-28T05:44:44.559Z,4.10
2018-03-28T05:47:12.841Z,4.10
2018-03-28T05:49:41.119Z,4.10
2018-03-28T05:52:09.388Z,4.20
2018-03-28T05:54:37.656Z,4.30
2018-03-28T05:57:05.931Z,4.40
2018-03-28T05:59:34.230Z,4.50
2018-03-28T06:02:02.468Z,4.50
2018-03-28T06:04:30.770Z,4.50
2018-03-28T06:06:59.005Z,4.40
2018-03-28T06:09:28.012Z,4.30
2018-03-28T06:11:56.253Z,4.30
2018-03-28T06:14:24.588Z,4.20
2018-03-28T06:16:52.823Z,4.20
2018-03-28T06:19:21.840Z,4.40
2018-03-28T06:21:50.129Z,4.40
2018-03-28T06:24:18.393Z,4.40
2018-03-28T06:26:46.633Z,4.50
2018-03-28T06:29:15.650Z,4.40
2018-03-28T06:31:43.948Z,4.40
2018-03-28T06:34:12.186Z,4.40
2018-03-28T06:36:41.202Z,4.60
2018-03-28T06:39:09.436Z,4.60
2018-03-28T06:41:38.448Z,4.80
2018-03-28T06:44:07.476Z,4.80
2018-03-28T06:46:35.752Z,4.80
2018-03-28T06:49:04.029Z,4.90
2018-03-28T06:54:15.420Z,5.30
2018-03-28T06:56:43.699Z,5.30
2018-03-28T06:59:11.947Z,5.60
2018-03-28T07:01:40.253Z,5.70
2018-03-28T07:04:08.627Z,5.70
2018-03-28T07:06:36.894Z,5.80
2018-03-28T07:09:05.996Z,5.80
2018-03-28T07:11:34.232Z,5.80
2018-03-28T07:14:03.236Z,6.00
2018-03-28T07:16:31.532Z,6.00
2018-03-28T07:18:59.821Z,6.20
2018-03-28T07:21:28.096Z,6.20
2018-03-28T07:23:56.332Z,6.30
2018-03-28T07:26:25.335Z,6.60
2018-03-28T07:28:53.634Z,6.60
2018-03-28T07:31:21.928Z,6.80
2018-03-28T07:33:50.184Z,6.90
2018-03-28T07:36:18.457Z,6.90
2018-03-28T07:38:46.781Z,6.90
2018-03-28T07:41:15.013Z,6.90
2018-03-28T07:43:43.262Z,6.90
2018-03-28T07:46:11.500Z,6.90
2018-03-28T07:48:39.736Z,7.00
2018-03-28T07:51:08.003Z,6.90
2018-03-28T07:53:36.290Z,6.70
2018-03-28T07:56:04.566Z,6.60
2018-03-28T07:58:32.845Z,6.40
2018-03-28T08:01:01.113Z,6.30
2018-03-28T08:03:29.395Z,6.20
2018-03-28T08:05:57.628Z,6.20
2018-03-28T08:08:26.659Z,6.30
2018-03-28T08:10:54.953Z,6.30
2018-03-28T08:13:23.200Z,6.40
2018-03-28T08:15:51.528Z,6.40
2018-03-28T08:18:19.767Z,6.40
2018-03-28T08:20:48.015Z,6.50
2018-03-28T08:23:16.273Z,6.50
2018-03-28T08:25:45.314Z,6.60
2018-03-28T08:28:13.539Z,6.60
2018-03-28T08:30:42.580Z,6.70
2018-03-28T08:33:10.827Z,6.70
2018-03-28T08:35:39.072Z,6.70
2018-03-28T08:38:08.099Z,6.50
2018-03-28T08:40:36.353Z,6.50
2018-03-28T08:43:05.394Z,6.40
2018-03-28T08:45:33.648Z,6.40
2018-03-28T08:48:01.905Z,6.40
2018-03-28T08:50:30.934Z,6.30
2018-03-28T08:52:59.308Z,6.30
2018-03-28T08:55:27.586Z,6.40
2018-03-28T08:57:55.842Z,6.40
2018-03-28T09:00:24.105Z,6.60
2018-03-28T09:02:53.850Z,6.70
2018-03-28T09:05:22.123Z,6.70
2018-03-28T09:07:50.383Z,6.80
2018-03-28T09:10:18.631Z,6.90
2018-03-28T09:12:47.655Z,7.20
2018-03-28T09:15:15.944Z,7.20
2018-03-28T09:17:44.311Z,7.40
2018-03-28T09:20:12.549Z,7.70
2018-03-28T09:22:42.398Z,8.20
2018-03-28T09:25:10.650Z,8.20
2018-03-28T09:27:38.960Z,8.50
2018-03-28T09:30:07.202Z,8.60
2018-03-28T09:32:35.465Z,8.80
2018-03-28T09:35:04.488Z,9.10
2018-03-28T09:37:32.772Z,9.10
2018-03-28T09:40:01.041Z,9.10
2018-03-28T09:42:29.317Z,9.00
2018-03-28T09:44:57.601Z,8.80
2018-03-28T09:47:25.879Z,8.60
2018-03-28T09:49:54.107Z,8.40
2018-03-28T09:52:23.123Z,8.00
2018-03-28T09:54:51.420Z,8.00
2018-03-28T09:57:19.803Z,7.70
2018-03-28T09:59:48.049Z,7.60
2018-03-28T10:02:16.289Z,7.60
2018-03-28T10:04:49.354Z,7.50
2018-03-28T10:07:17.611Z,7.40
2018-03-28T10:09:45.877Z,7.40
2018-03-28T10:12:14.121Z,7.20
2018-03-28T10:14:43.158Z,7.10
2018-03-28T10:17:11.398Z,7.10
2018-03-28T10:19:39.712Z,7.00
2018-03-28T10:22:07.953Z,7.00
2018-03-28T10:24:36.195Z,7.00
2018-03-28T10:27:04.444Z,7.00
2018-03-28T10:29:32.706Z,7.00
2018-03-28T10:32:00.974Z,7.00
2018-03-28T10:34:29.249Z,6.90
2018-03-28T10:36:57.905Z,6.90
2018-03-28T10:39:26.209Z,6.80
2018-03-28T10:41:54.481Z,6.90
2018-03-28T10:44:22.760Z,6.90
2018-03-28T10:46:51.007Z,6.90
2018-03-28T10:49:19.325Z,7.00
2018-03-28T10:51:47.570Z,7.00
2018-03-28T10:54:15.821Z,7.10
2018-03-28T10:56:44.844Z,7.00
2018-03-28T10:59:13.088Z,7.00
2018-03-28T11:01:42.131Z,7.00
2018-03-28T11:04:10.397Z,7.00
2018-03-28T11:06:38.655Z,6.90
2018-03-28T11:09:06.912Z,6.80
2018-03-28T11:11:35.917Z,6.70
2018-03-28T11:14:04.169Z,6.70
2018-03-28T11:16:33.187Z,6.70
2018-03-28T11:19:01.459Z,6.70
2018-03-28T11:21:29.723Z,6.70
2018-03-28T11:23:58.742Z,6.70
2018-03-28T11:26:26.980Z,6.60
2018-03-28T11:28:55.989Z,6.70
2018-03-28T11:31:24.237Z,6.70
2018-03-28T11:33:52.472Z,6.70
2018-03-28T11:36:20.729Z,6.80
2018-03-28T11:38:48.972Z,7.00
2018-03-28T11:41:17.995Z,7.30
2018-03-28T11:43:46.246Z,7.30
2018-03-28T11:46:15.373Z,7.60
2018-03-28T11:48:43.622Z,7.50
2018-03-28T11:51:12.642Z,7.70
2018-03-28T11:53:40.897Z,7.70
2018-03-28T11:56:09.138Z,7.70
2018-03-28T11:58:37.379Z,7.80
2018-03-28T12:01:05.625Z,7.90
2018-03-28T12:03:33.890Z,7.90
2018-03-28T12:06:02.136Z,7.90
2018-03-28T12:08:30.393Z,7.90
2018-03-28T12:10:58.637Z,7.70
2018-03-28T12:13:26.893Z,7.60
2018-03-28T12:15:55.138Z,7.60
2018-03-28T12:18:23.381Z,7.60
2018-03-28T12:20:51.633Z,7.50
2018-03-28T12:23:27.616Z,7.50
2018-03-28T12:25:55.862Z,7.60
2018-03-28T12:28:26.914Z,7.60
2018-03-28T12:30:55.163Z,7.70
2018-03-28T12:33:23.461Z,7.70
2018-03-28T12:35:51.740Z,7.50
2018-03-28T12:38:20.056Z,7.30
2018-03-28T12:40:48.290Z,7.20
2018-03-28T12:43:16.560Z,7.20
2018-03-28T12:45:44.827Z,7.10
2018-03-28T12:48:13.085Z,7.10
2018-03-28T12:50:42.095Z,7.00
2018-03-28T12:53:10.345Z,7.00
2018-03-28T12:55:39.395Z,7.10
2018-03-28T12:58:07.640Z,7.10
2018-03-28T13:00:35.916Z,7.30
2018-03-28T13:03:04.195Z,7.40
2018-03-28T13:05:32.483Z,7.30
2018-03-28T13:08:00.887Z,7.10
2018-03-28T13:10:29.144Z,7.00
2018-03-28T13:12:57.513Z,7.00
2018-03-28T13:15:25.787Z,6.90
2018-03-28T13:17:54.051Z,6.90
2018-03-28T13:20:22.327Z,7.00
2018-03-28T13:22:50.564Z,7.00
2018-03-28T13:25:19.573Z,6.90
2018-03-28T13:27:47.807Z,6.90
2018-03-28T13:30:16.048Z,6.90
2018-03-28T13:32:44.284Z,6.90
2018-03-28T13:35:13.319Z,6.80
2018-03-28T13:37:41.567Z,6.80
2018-03-28T13:40:09.799Z,6.80
2018-03-28T13:42:38.050Z,6.80
2018-03-28T13:45:06.313Z,6.70
2018-03-28T13:47:34.580Z,6.60
2018-03-28T13:50:02.819Z,6.60
2018-03-28T13:52:31.849Z,6.60
2018-03-28T13:55:00.094Z,6.60
2018-03-28T13:57:29.112Z,6.60
2018-03-28T13:59:57.410Z,6.60
2018-03-28T14:02:25.671Z,6.70
2018-03-28T14:04:53.896Z,6.70
2018-03-28T14:07:22.149Z,6.70
2018-03-28T14:09:50.399Z,6.60
2018-03-28T14:12:18.677Z,6.60
2018-03-28T14:14:46.922Z,6.70
2018-03-28T14:17:15.951Z,6.60
2018-03-28T14:19:44.215Z,6.60
2018-03-28T14:22:15.838Z,6.60
2018-03-28T14:24:44.066Z,6.70
2018-03-28T14:27:12.316Z,6.70
2018-03-28T14:29:40.595Z,6.70
2018-03-28T14:32:09.137Z,6.70
2018-03-28T14:34:37.592Z,6.60
2018-03-28T14:37:05.833Z,6.60
2018-03-28T14:39:34.085Z,6.50
2018-03-28T14:42:02.333Z,6.50
2018-03-28T14:44:31.379Z,6.30
2018-03-28T14:46:59.625Z,6.30
2018-03-28T14:49:27.872Z,6.30
2018-03-28T14:51:56.456Z,6.40
2018-03-28T14:54:24.835Z,6.40
2018-03-28T14:56:53.850Z,6.40
2018-03-28T14:59:22.155Z,6.30
2018-03-28T15:01:50.404Z,6.40
2018-03-28T15:04:18.656Z,6.30
2018-03-28T15:06:47.692Z,6.20
2018-03-28T15:09:15.937Z,6.20
2018-03-28T15:11:44.967Z,6.20
2018-03-28T15:14:13.221Z,6.20
2018-03-28T15:16:41.512Z,6.20
2018-03-28T15:19:09.837Z,6.20
2018-03-28T15:21:38.063Z,6.10
2018-03-28T15:24:06.322Z,6.10
2018-03-28T15:26:34.627Z,6.20
2018-03-28T15:29:02.968Z,6.20
2018-03-28T15:31:31.225Z,6.20
2018-03-28T15:33:59.458Z,6.10
2018-03-28T15:36:27.702Z,6.10
2018-03-28T15:38:55.952Z,6.10
2018-03-28T15:41:25.137Z,6.20
2018-03-28T15:43:53.369Z,6.20
2018-03-28T15:46:21.642Z,6.10
2018-03-28T15:48:49.880Z,6.10
2018-03-28T15:51:18.912Z,6.10
2018-03-28T15:53:47.159Z,6.10
2018-03-28T15:56:15.462Z,6.00
2018-03-28T15:58:44.087Z,6.00
2018-03-28T16:01:12.421Z,6.00
2018-03-28T16:03:40.702Z,6.00
2018-03-28T16:06:08.967Z,6.00
2018-03-28T16:08:37.291Z,6.00
2018-03-28T16:11:05.671Z,6.00
2018-03-28T16:13:33.992Z,5.90
2018-03-28T16:16:02.272Z,5.90
2018-03-28T16:18:30.543Z,5.90
2018-03-28T16:20:58.820Z,5.90
2018-03-28T16:23:27.078Z,5.90
2018-03-28T16:25:55.373Z,5.90
2018-03-28T16:28:23.631Z,5.90
2018-03-28T16:30:51.927Z,5.90
2018-03-28T16:33:20.197Z,5.90
2018-03-28T16:35:48.453Z,5.80
2018-03-28T16:38:16.763Z,5.80
2018-03-28T16:40:45.026Z,5.80
2018-03-28T16:43:13.325Z,5.90
2018-03-28T16:45:41.554Z,5.80
2018-03-28T16:48:09.824Z,5.80
2018-03-28T16:50:38.842Z,5.80
2018-03-28T16:53:07.092Z,5.70
2018-03-28T16:55:35.362Z,5.70
2018-03-28T16:58:04.403Z,5.70
2018-03-28T17:00:32.645Z,5.70
2018-03-28T17:03:00.905Z,5.70
2018-03-28T17:05:29.917Z,5.70
2018-03-28T17:07:58.218Z,5.70
2018-03-28T17:10:26.469Z,5.80
2018-03-28T17:12:54.756Z,5.70
2018-03-28T17:15:23.037Z,5.70
2018-03-28T17:17:51.308Z,5.70
2018-03-28T17:20:19.696Z,5.70
2018-03-28T17:22:47.960Z,5.70
2018-03-28T17:25:16.232Z,5.60
2018-03-28T17:27:44.483Z,5.60
2018-03-28T17:30:13.492Z,5.60
2018-03-28T17:32:41.785Z,5.60
2018-03-28T17:35:10.052Z,5.60
2018-03-28T17:37:38.301Z,5.60
2018-03-28T17:40:07.320Z,5.50
2018-03-28T17:42:35.606Z,5.50
2018-03-28T17:45:03.877Z,5.50
2018-03-28T17:47:32.178Z,5.50
2018-03-28T17:50:00.420Z,5.50
2018-03-28T17:52:28.703Z,5.40
2018-03-28T17:54:56.948Z,5.50
2018-03-28T17:57:26.529Z,5.50
2018-03-28T17:59:54.803Z,5.50
2018-03-28T18:02:23.048Z,5.50
2018-03-28T18:04:51.293Z,5.60
2018-03-28T18:07:19.586Z,5.60
2018-03-28T18:09:47.856Z,5.60
2018-03-28T18:12:16.137Z,5.60
2018-03-28T18:14:44.460Z,5.60
2018-03-28T18:17:12.698Z,5.70
2018-03-28T18:19:40.943Z,5.70
2018-03-28T18:22:09.346Z,5.70
2018-03-28T18:24:37.592Z,5.70
2018-03-28T18:27:05.832Z,5.70
2018-03-28T18:29:34.108Z,5.70
2018-03-28T18:32:02.440Z,5.70
2018-03-28T18:34:30.817Z,5.70
2018-03-28T18:36:59.141Z,5.70
2018-03-28T18:39:27.364Z,5.70
2018-03-28T18:41:55.618Z,5.70
2018-03-28T18:44:23.866Z,5.70
2018-03-28T18:46:52.122Z,5.70
2018-03-28T18:49:20.469Z,5.70
2018-03-28T18:51:48.727Z,5.80
2018-03-28T18:54:16.977Z,5.70
2018-03-28T18:56:46.018Z,5.70
2018-03-28T18:59:14.405Z,5.70
2018-03-28T19:01:42.677Z,5.70
2018-03-28T19:04:10.959Z,5.60
2018-03-28T19:06:39.523Z,5.60
2018-03-28T19:09:07.768Z,5.70
2018-03-28T19:11:36.784Z,5.70
2018-03-28T19:14:05.041Z,5.70
2018-03-28T19:16:33.394Z,5.80
2018-03-28T19:19:01.616Z,5.80
2018-03-28T19:21:29.878Z,5.80
2018-03-28T19:23:58.112Z,5.80
2018-03-28T19:26:26.385Z,5.80
2018-03-28T19:28:54.721Z,5.70
2018-03-28T19:31:23.002Z,5.70
2018-03-28T19:33:51.274Z,5.70
2018-03-28T19:36:19.561Z,5.70
2018-03-28T19:38:47.810Z,5.60
2018-03-28T19:41:16.056Z,5.60
2018-03-28T19:43:45.137Z,5.50
2018-03-28T19:46:13.348Z,5.50
2018-03-28T19:48:41.997Z,5.50
2018-03-28T19:51:10.268Z,5.60
2018-03-28T19:53:38.506Z,5.50
2018-03-28T19:56:06.745Z,5.50
2018-03-28T19:58:35.765Z,5.60
2018-03-28T20:01:04.013Z,5.60
2018-03-28T20:03:32.362Z,5.60
2018-03-28T20:06:00.577Z,5.60
2018-03-28T20:08:28.917Z,5.60
2018-03-28T20:10:57.467Z,5.60
2018-03-28T20:13:25.783Z,5.70
2018-03-28T20:15:54.033Z,5.70
2018-03-28T20:18:22.349Z,5.70
2018-03-28T20:20:51.426Z,5.70
2018-03-28T20:23:19.700Z,5.70
2018-03-28T20:25:48.178Z,5.70
2018-03-28T20:28:16.663Z,5.70
2018-03-28T20:30:45.106Z,5.70
2018-03-28T20:33:13.355Z,5.70
2018-03-28T20:35:41.599Z,5.60
2018-03-28T20:38:10.695Z,5.60
2018-03-28T20:40:38.952Z,5.60
2018-03-28T20:43:07.195Z,5.60
2018-03-28T20:45:35.441Z,5.60
2018-03-28T20:48:03.686Z,5.70
2018-03-28T20:50:31.928Z,5.70
2018-03-28T20:53:00.188Z,5.70
2018-03-28T20:55:28.505Z,5.60
2018-03-28T20:57:58.321Z,5.60
2018-03-28T21:00:26.767Z,5.60
2018-03-28T21:02:54.991Z,5.60
2018-03-28T21:05:23.999Z,5.70
2018-03-28T21:07:52.305Z,5.70
2018-03-28T21:10:20.581Z,5.70
2018-03-28T21:12:48.860Z,5.80
2018-03-28T21:15:17.113Z,5.90
2018-03-28T21:17:45.409Z,5.90
2018-03-28T21:20:13.640Z,5.90
2018-03-28T21:22:42.708Z,5.90
2018-03-28T21:25:10.909Z,5.80
2018-03-28T21:27:39.931Z,5.90
2018-03-28T21:30:08.168Z,5.90
2018-03-28T21:32:37.204Z,6.00
2018-03-28T21:35:05.439Z,6.00
2018-03-28T21:37:34.476Z,6.10
2018-03-28T21:40:03.603Z,6.20
2018-03-28T21:42:31.849Z,6.20
2018-03-28T21:45:00.116Z,6.30
2018-03-28T21:47:28.400Z,6.30
2018-03-28T21:49:56.663Z,6.40
2018-03-28T21:52:24.940Z,6.40
2018-03-28T21:54:53.199Z,6.50
2018-03-28T21:57:22.265Z,6.60
2018-03-28T21:59:50.492Z,6.50
2018-03-28T22:02:18.733Z,6.60
2018-03-28T22:04:47.739Z,6.70
2018-03-28T22:07:16.041Z,6.60
2018-03-28T22:09:44.303Z,6.60
2018-03-28T22:12:12.583Z,6.60
2018-03-28T22:14:40.831Z,6.60
2018-03-28T22:17:09.866Z,6.70
2018-03-28T22:19:38.100Z,6.70
2018-03-28T22:22:07.113Z,6.70
2018-03-28T22:24:35.354Z,6.70
2018-03-28T22:27:04.363Z,6.70
2018-03-28T22:29:32.595Z,6.70
2018-03-28T22:32:00.835Z,6.70
2018-03-28T22:34:29.087Z,6.80
2018-03-28T22:36:57.343Z,6.80
2018-03-28T22:39:26.350Z,6.90
2018-03-28T22:41:54.657Z,6.90
2018-03-28T22:44:22.897Z,6.90
2018-03-28T22:46:51.907Z,6.90
2018-03-28T22:49:20.141Z,6.90
2018-03-28T22:51:49.900Z,6.90
2018-03-28T22:54:18.141Z,6.90
2018-03-28T22:56:47.168Z,6.90
2018-03-28T22:59:15.457Z,6.90
2018-03-28T23:01:43.697Z,6.90
2018-03-28T23:04:11.941Z,7.00
2018-03-28T23:06:40.269Z,7.00
2018-03-28T23:09:08.516Z,7.00
2018-03-28T23:11:37.539Z,7.00
2018-03-28T23:14:05.779Z,7.00
2018-03-28T23:16:34.795Z,7.20
2018-03-28T23:19:03.055Z,7.10
2018-03-28T23:21:32.068Z,7.20
2018-03-28T23:24:00.348Z,7.20
2018-03-28T23:26:28.580Z,7.20
2018-03-28T23:28:56.897Z,7.00
2018-03-28T23:31:25.177Z,7.00
2018-03-28T23:33:53.466Z,6.90
2018-03-28T23:36:21.704Z,6.80
2018-03-28T23:38:50.718Z,6.60
2018-03-28T23:41:18.966Z,6.60
2018-03-28T23:43:47.981Z,6.40
2018-03-28T23:46:16.208Z,6.50
2018-03-28T23:48:44.540Z,6.30
2018-03-28T23:51:12.772Z,6.20
2018-03-28T23:53:41.781Z,6.00
2018-03-28T23:56:10.785Z,5.90
2018-03-28T23:58:39.020Z,5.90
